sensor_id;sensor_type;location;lat;lon;timestamp;temperature;humidity
27890;DHT22;15238;49.082;9.102;2022-12-29T00:00:53;8.80;99.90
27890;DHT22;15238;49.082;9.102;2022-12-29T00:02:53;8.70;99.90
27890;DHT22;15238;49.082;9.102;2022-12-29T00:04:54;8.70;99.90
27890;DHT22;15238;49.082;9.102;2022-12-29T00:06:54;8.70;99.90
27890;DHT22;15238;49.082;9.102;2022-12-29T00:08:55;8.80;99.90
27890;DHT22;15238;49.082;9.102;2022-12-29T00:10:55;8.80;99.90
27890;DHT22;15238;49.082;9.102;2022-12-29T00:12:56;8.80;99.90
27890;DHT22;15238;49.082;9.102;2022-12-29T00:15:15;8.80;99.90
27890;DHT22;15238;49.082;9.102;2022-12-29T00:17:34;8.90;99.90
27890;DHT22;15238;49.082;9.102;2022-12-29T00:19:34;8.90;99.90
27890;DHT22;15238;49.082;9.102;2022-12-29T00:21:54;8.90;99.90
27890;DHT22;15238;49.082;9.102;2022-12-29T00:24:18;8.90;99.90
27890;DHT22;15238;49.082;9.102;2022-12-29T00:26:22;8.90;99.90
27890;DHT22;15238;49.082;9.102;2022-12-29T00:28:41;8.90;99.90
27890;DHT22;15238;49.082;9.102;2022-12-29T00:31:00;8.90;99.90
27890;DHT22;15238;49.082;9.102;2022-12-29T00:33:21;8.90;99.90
27890;DHT22;15238;49.082;9.102;2022-12-29T00:35:56;8.90;99.90
27890;DHT22;15238;49.082;9.102;2022-12-29T00:38:02;8.80;99.90
27890;DHT22;15238;49.082;9.102;2022-12-29T00:40:22;8.90;99.90
27890;DHT22;15238;49.082;9.102;2022-12-29T00:42:41;8.90;99.90
27890;DHT22;15238;49.082;9.102;2022-12-29T00:45:00;8.90;99.90
27890;DHT22;15238;49.082;9.102;2022-12-29T00:47:01;8.90;99.90
27890;DHT22;15238;49.082;9.102;2022-12-29T00:49:05;8.90;99.90
27890;DHT22;15238;49.082;9.102;2022-12-29T00:51:25;8.90;99.90
27890;DHT22;15238;49.082;9.102;2022-12-29T00:53:25;9.00;99.90
27890;DHT22;15238;49.082;9.102;2022-12-29T00:55:26;9.00;99.90
27890;DHT22;15238;49.082;9.102;2022-12-29T00:57:26;8.90;99.90
27890;DHT22;15238;49.082;9.102;2022-12-29T00:59:27;8.80;99.90
27890;DHT22;15238;49.082;9.102;2022-12-29T01:01:27;8.80;99.90
27890;DHT22;15238;49.082;9.102;2022-12-29T01:03:28;8.70;99.90
27890;DHT22;15238;49.082;9.102;2022-12-29T01:05:28;8.80;99.90
27890;DHT22;15238;49.082;9.102;2022-12-29T01:07:29;8.80;99.90
27890;DHT22;15238;49.082;9.102;2022-12-29T01:09:31;8.80;99.90
27890;DHT22;15238;49.082;9.102;2022-12-29T01:11:50;8.80;99.90
27890;DHT22;15238;49.082;9.102;2022-12-29T01:13:52;8.80;99.90
27890;DHT22;15238;49.082;9.102;2022-12-29T01:15:53;8.80;99.90
27890;DHT22;15238;49.082;9.102;2022-12-29T01:17:54;8.80;99.90
27890;DHT22;15238;49.082;9.102;2022-12-29T01:19:54;8.80;99.90
27890;DHT22;15238;49.082;9.102;2022-12-29T01:21:55;9.00;99.90
27890;DHT22;15238;49.082;9.102;2022-12-29T01:23:55;9.00;99.90
27890;DHT22;15238;49.082;9.102;2022-12-29T01:25:56;9.10;99.90
27890;DHT22;15238;49.082;9.102;2022-12-29T01:27:56;9.10;99.90
27890;DHT22;15238;49.082;9.102;2022-12-29T01:29:57;9.20;99.90
27890;DHT22;15238;49.082;9.102;2022-12-29T01:31:57;9.20;99.90
27890;DHT22;15238;49.082;9.102;2022-12-29T01:33:58;9.30;99.90
27890;DHT22;15238;49.082;9.102;2022-12-29T01:36:06;9.30;99.90
27890;DHT22;15238;49.082;9.102;2022-12-29T01:38:07;9.40;99.90
27890;DHT22;15238;49.082;9.102;2022-12-29T01:40:08;9.40;99.90
27890;DHT22;15238;49.082;9.102;2022-12-29T01:42:16;9.50;99.90
27890;DHT22;15238;49.082;9.102;2022-12-29T01:44:49;9.50;99.90
27890;DHT22;15238;49.082;9.102;2022-12-29T01:46:51;9.60;99.90
27890;DHT22;15238;49.082;9.102;2022-12-29T01:48:59;9.70;99.90
27890;DHT22;15238;49.082;9.102;2022-12-29T01:51:02;9.70;99.90
27890;DHT22;15238;49.082;9.102;2022-12-29T01:53:10;9.60;99.90
27890;DHT22;15238;49.082;9.102;2022-12-29T01:55:12;9.60;99.90
27890;DHT22;15238;49.082;9.102;2022-12-29T01:57:21;9.50;99.90
27890;DHT22;15238;49.082;9.102;2022-12-29T01:59:28;9.40;99.90
27890;DHT22;15238;49.082;9.102;2022-12-29T02:01:30;9.30;99.90
27890;DHT22;15238;49.082;9.102;2022-12-29T02:03:31;9.20;99.90
27890;DHT22;15238;49.082;9.102;2022-12-29T02:05:59;9.20;99.90
27890;DHT22;15238;49.082;9.102;2022-12-29T02:08:02;9.20;99.90
27890;DHT22;15238;49.082;9.102;2022-12-29T02:10:03;9.10;99.90
27890;DHT22;15238;49.082;9.102;2022-12-29T02:12:04;9.10;99.90
27890;DHT22;15238;49.082;9.102;2022-12-29T02:14:11;9.00;99.90
27890;DHT22;15238;49.082;9.102;2022-12-29T02:16:31;9.00;99.90
27890;DHT22;15238;49.082;9.102;2022-12-29T02:23:53;8.90;99.90
27890;DHT22;15238;49.082;9.102;2022-12-29T02:33:02;8.80;99.90
27890;DHT22;15238;49.082;9.102;2022-12-29T02:37:43;8.80;99.90
27890;DHT22;15238;49.082;9.102;2022-12-29T02:39:56;8.80;99.90
27890;DHT22;15238;49.082;9.102;2022-12-29T02:42:06;8.80;99.90
27890;DHT22;15238;49.082;9.102;2022-12-29T02:44:24;8.70;99.90
27890;DHT22;15238;49.082;9.102;2022-12-29T02:51:43;8.60;99.90
27890;DHT22;15238;49.082;9.102;2022-12-29T02:53:41;8.60;99.90
27890;DHT22;15238;49.082;9.102;2022-12-29T02:56:02;8.70;99.90
27890;DHT22;15238;49.082;9.102;2022-12-29T03:00:14;8.70;99.90
27890;DHT22;15238;49.082;9.102;2022-12-29T03:02:30;8.70;99.90
27890;DHT22;15238;49.082;9.102;2022-12-29T03:11:33;8.70;99.90
27890;DHT22;15238;49.082;9.102;2022-12-29T03:14:08;8.70;99.90
27890;DHT22;15238;49.082;9.102;2022-12-29T03:16:32;8.70;99.90
27890;DHT22;15238;49.082;9.102;2022-12-29T03:18:50;8.70;99.90
27890;DHT22;15238;49.082;9.102;2022-12-29T03:21:00;8.80;99.90
27890;DHT22;15238;49.082;9.102;2022-12-29T03:23:04;8.70;99.90
27890;DHT22;15238;49.082;9.102;2022-12-29T03:25:32;8.70;99.90
27890;DHT22;15238;49.082;9.102;2022-12-29T03:27:47;8.80;99.90
27890;DHT22;15238;49.082;9.102;2022-12-29T03:29:52;8.90;99.90
27890;DHT22;15238;49.082;9.102;2022-12-29T03:31:55;8.90;99.90
27890;DHT22;15238;49.082;9.102;2022-12-29T03:33:56;9.00;99.90
27890;DHT22;15238;49.082;9.102;2022-12-29T03:36:01;9.00;99.90
27890;DHT22;15238;49.082;9.102;2022-12-29T03:38:11;9.10;99.90
27890;DHT22;15238;49.082;9.102;2022-12-29T03:40:13;9.10;99.90
27890;DHT22;15238;49.082;9.102;2022-12-29T03:42:17;9.10;99.90
27890;DHT22;15238;49.082;9.102;2022-12-29T03:44:19;9.10;99.90
27890;DHT22;15238;49.082;9.102;2022-12-29T03:46:19;9.10;99.90
27890;DHT22;15238;49.082;9.102;2022-12-29T03:48:20;9.10;99.90
27890;DHT22;15238;49.082;9.102;2022-12-29T03:50:20;9.10;99.90
27890;DHT22;15238;49.082;9.102;2022-12-29T03:52:21;9.00;99.90
27890;DHT22;15238;49.082;9.102;2022-12-29T03:54:22;9.10;99.90
27890;DHT22;15238;49.082;9.102;2022-12-29T03:56:22;9.10;99.90
27890;DHT22;15238;49.082;9.102;2022-12-29T03:58:23;9.10;99.90
27890;DHT22;15238;49.082;9.102;2022-12-29T04:00:23;9.10;99.90
27890;DHT22;15238;49.082;9.102;2022-12-29T04:02:24;9.10;99.90
27890;DHT22;15238;49.082;9.102;2022-12-29T04:04:24;9.10;99.90
27890;DHT22;15238;49.082;9.102;2022-12-29T04:06:25;9.10;99.90
27890;DHT22;15238;49.082;9.102;2022-12-29T04:08:25;9.10;99.90
27890;DHT22;15238;49.082;9.102;2022-12-29T04:10:26;9.10;99.90
27890;DHT22;15238;49.082;9.102;2022-12-29T04:12:26;9.00;99.90
27890;DHT22;15238;49.082;9.102;2022-12-29T04:14:27;9.00;99.90
27890;DHT22;15238;49.082;9.102;2022-12-29T04:16:27;9.10;99.90
27890;DHT22;15238;49.082;9.102;2022-12-29T04:18:28;9.10;99.90
27890;DHT22;15238;49.082;9.102;2022-12-29T04:20:28;9.10;99.90
27890;DHT22;15238;49.082;9.102;2022-12-29T04:22:47;9.10;99.90
27890;DHT22;15238;49.082;9.102;2022-12-29T04:24:48;9.10;99.90
27890;DHT22;15238;49.082;9.102;2022-12-29T04:26:48;9.00;99.90
27890;DHT22;15238;49.082;9.102;2022-12-29T04:28:49;9.10;99.90
27890;DHT22;15238;49.082;9.102;2022-12-29T04:30:50;9.10;99.90
27890;DHT22;15238;49.082;9.102;2022-12-29T04:32:50;9.10;99.90
27890;DHT22;15238;49.082;9.102;2022-12-29T04:34:51;9.20;99.90
27890;DHT22;15238;49.082;9.102;2022-12-29T04:36:51;9.30;99.90
27890;DHT22;15238;49.082;9.102;2022-12-29T04:38:52;9.30;99.90
27890;DHT22;15238;49.082;9.102;2022-12-29T04:40:52;9.40;99.90
27890;DHT22;15238;49.082;9.102;2022-12-29T04:42:53;9.50;99.90
27890;DHT22;15238;49.082;9.102;2022-12-29T04:44:54;9.70;99.90
27890;DHT22;15238;49.082;9.102;2022-12-29T04:46:54;9.90;99.90
27890;DHT22;15238;49.082;9.102;2022-12-29T04:48:55;10.00;99.90
27890;DHT22;15238;49.082;9.102;2022-12-29T04:50:55;10.00;99.90
27890;DHT22;15238;49.082;9.102;2022-12-29T04:52:56;10.00;99.90
27890;DHT22;15238;49.082;9.102;2022-12-29T04:54:56;10.10;99.90
27890;DHT22;15238;49.082;9.102;2022-12-29T04:56:57;10.20;99.90
27890;DHT22;15238;49.082;9.102;2022-12-29T04:58:57;10.20;99.90
27890;DHT22;15238;49.082;9.102;2022-12-29T05:00:58;10.20;99.90
27890;DHT22;15238;49.082;9.102;2022-12-29T05:02:58;10.10;99.90
27890;DHT22;15238;49.082;9.102;2022-12-29T05:04:59;10.00;99.90
27890;DHT22;15238;49.082;9.102;2022-12-29T05:07:00;10.00;99.90
27890;DHT22;15238;49.082;9.102;2022-12-29T05:09:00;10.00;99.90
27890;DHT22;15238;49.082;9.102;2022-12-29T05:11:01;10.00;99.90
27890;DHT22;15238;49.082;9.102;2022-12-29T05:13:01;9.90;99.90
27890;DHT22;15238;49.082;9.102;2022-12-29T05:15:03;10.00;99.90
27890;DHT22;15238;49.082;9.102;2022-12-29T05:17:03;10.10;99.90
27890;DHT22;15238;49.082;9.102;2022-12-29T05:19:04;10.20;99.90
27890;DHT22;15238;49.082;9.102;2022-12-29T05:21:04;10.30;99.90
27890;DHT22;15238;49.082;9.102;2022-12-29T05:23:05;10.40;99.90
27890;DHT22;15238;49.082;9.102;2022-12-29T05:25:06;10.50;99.90
27890;DHT22;15238;49.082;9.102;2022-12-29T05:27:07;10.60;99.90
27890;DHT22;15238;49.082;9.102;2022-12-29T05:29:07;10.60;99.90
27890;DHT22;15238;49.082;9.102;2022-12-29T05:31:08;10.60;99.90
27890;DHT22;15238;49.082;9.102;2022-12-29T05:33:09;10.60;99.90
27890;DHT22;15238;49.082;9.102;2022-12-29T05:35:11;10.70;99.90
27890;DHT22;15238;49.082;9.102;2022-12-29T05:37:12;10.70;99.90
27890;DHT22;15238;49.082;9.102;2022-12-29T05:39:12;10.60;99.90
27890;DHT22;15238;49.082;9.102;2022-12-29T05:41:13;10.60;99.90
27890;DHT22;15238;49.082;9.102;2022-12-29T05:43:13;10.60;99.90
27890;DHT22;15238;49.082;9.102;2022-12-29T05:45:14;10.60;99.90
27890;DHT22;15238;49.082;9.102;2022-12-29T05:47:14;10.60;99.90
27890;DHT22;15238;49.082;9.102;2022-12-29T05:49:15;10.60;99.90
27890;DHT22;15238;49.082;9.102;2022-12-29T05:51:16;10.60;99.90
27890;DHT22;15238;49.082;9.102;2022-12-29T05:53:17;10.60;99.90
27890;DHT22;15238;49.082;9.102;2022-12-29T05:55:18;10.60;99.90
27890;DHT22;15238;49.082;9.102;2022-12-29T05:57:18;10.70;99.90
27890;DHT22;15238;49.082;9.102;2022-12-29T05:59:19;10.70;99.90
27890;DHT22;15238;49.082;9.102;2022-12-29T06:01:19;10.80;99.90
27890;DHT22;15238;49.082;9.102;2022-12-29T06:03:20;10.80;99.90
27890;DHT22;15238;49.082;9.102;2022-12-29T06:05:20;10.90;99.90
27890;DHT22;15238;49.082;9.102;2022-12-29T06:07:21;10.90;99.90
27890;DHT22;15238;49.082;9.102;2022-12-29T06:09:21;10.90;99.90
27890;DHT22;15238;49.082;9.102;2022-12-29T06:11:22;10.90;99.90
27890;DHT22;15238;49.082;9.102;2022-12-29T06:13:22;10.80;99.90
27890;DHT22;15238;49.082;9.102;2022-12-29T06:15:23;10.80;99.90
27890;DHT22;15238;49.082;9.102;2022-12-29T06:17:24;10.80;99.90
27890;DHT22;15238;49.082;9.102;2022-12-29T06:19:24;10.80;99.90
27890;DHT22;15238;49.082;9.102;2022-12-29T06:21:25;10.80;99.90
27890;DHT22;15238;49.082;9.102;2022-12-29T06:23:25;10.90;99.90
27890;DHT22;15238;49.082;9.102;2022-12-29T06:25:26;10.90;99.90
27890;DHT22;15238;49.082;9.102;2022-12-29T06:27:26;10.80;99.90
27890;DHT22;15238;49.082;9.102;2022-12-29T06:29:27;10.80;99.90
27890;DHT22;15238;49.082;9.102;2022-12-29T06:31:28;10.80;99.90
27890;DHT22;15238;49.082;9.102;2022-12-29T06:33:29;10.70;99.90
27890;DHT22;15238;49.082;9.102;2022-12-29T06:35:30;10.80;99.90
27890;DHT22;15238;49.082;9.102;2022-12-29T06:37:30;10.70;99.90
27890;DHT22;15238;49.082;9.102;2022-12-29T06:39:31;10.70;99.90
27890;DHT22;15238;49.082;9.102;2022-12-29T06:41:32;10.60;99.90
27890;DHT22;15238;49.082;9.102;2022-12-29T06:43:32;10.60;99.90
27890;DHT22;15238;49.082;9.102;2022-12-29T06:45:34;10.60;99.90
27890;DHT22;15238;49.082;9.102;2022-12-29T06:47:35;10.60;99.90
27890;DHT22;15238;49.082;9.102;2022-12-29T06:49:35;10.70;99.90
27890;DHT22;15238;49.082;9.102;2022-12-29T06:51:36;10.60;99.90
27890;DHT22;15238;49.082;9.102;2022-12-29T06:53:36;10.70;99.90
27890;DHT22;15238;49.082;9.102;2022-12-29T06:55:37;10.70;99.90
27890;DHT22;15238;49.082;9.102;2022-12-29T06:57:37;10.80;99.90
27890;DHT22;15238;49.082;9.102;2022-12-29T06:59:38;10.80;99.90
27890;DHT22;15238;49.082;9.102;2022-12-29T07:01:38;10.80;99.90
27890;DHT22;15238;49.082;9.102;2022-12-29T07:03:41;10.80;99.90
27890;DHT22;15238;49.082;9.102;2022-12-29T07:05:42;10.80;99.90
27890;DHT22;15238;49.082;9.102;2022-12-29T07:07:43;10.80;99.90
27890;DHT22;15238;49.082;9.102;2022-12-29T07:09:44;10.80;99.90
27890;DHT22;15238;49.082;9.102;2022-12-29T07:11:44;10.80;99.90
27890;DHT22;15238;49.082;9.102;2022-12-29T07:13:45;10.80;99.90
27890;DHT22;15238;49.082;9.102;2022-12-29T07:15:45;10.80;99.90
27890;DHT22;15238;49.082;9.102;2022-12-29T07:17:46;10.80;99.90
27890;DHT22;15238;49.082;9.102;2022-12-29T07:19:46;10.80;99.90
27890;DHT22;15238;49.082;9.102;2022-12-29T07:21:47;10.80;99.90
27890;DHT22;15238;49.082;9.102;2022-12-29T07:23:47;10.80;99.90
27890;DHT22;15238;49.082;9.102;2022-12-29T07:25:48;10.80;99.90
27890;DHT22;15238;49.082;9.102;2022-12-29T07:27:48;10.80;99.90
27890;DHT22;15238;49.082;9.102;2022-12-29T07:29:49;10.80;99.90
27890;DHT22;15238;49.082;9.102;2022-12-29T07:31:50;10.70;99.90
27890;DHT22;15238;49.082;9.102;2022-12-29T07:33:50;10.70;99.90
27890;DHT22;15238;49.082;9.102;2022-12-29T07:35:51;10.60;99.90
27890;DHT22;15238;49.082;9.102;2022-12-29T07:37:51;10.60;99.90
27890;DHT22;15238;49.082;9.102;2022-12-29T07:39:52;10.60;99.90
27890;DHT22;15238;49.082;9.102;2022-12-29T07:41:52;10.70;99.90
27890;DHT22;15238;49.082;9.102;2022-12-29T07:43:53;10.60;99.90
27890;DHT22;15238;49.082;9.102;2022-12-29T07:45:53;10.60;99.90
27890;DHT22;15238;49.082;9.102;2022-12-29T07:47:54;10.60;99.90
27890;DHT22;15238;49.082;9.102;2022-12-29T07:49:54;10.50;99.90
27890;DHT22;15238;49.082;9.102;2022-12-29T07:51:55;10.50;99.90
27890;DHT22;15238;49.082;9.102;2022-12-29T07:53:55;10.50;99.90
27890;DHT22;15238;49.082;9.102;2022-12-29T07:55:56;10.50;99.90
27890;DHT22;15238;49.082;9.102;2022-12-29T07:57:56;10.50;99.90
27890;DHT22;15238;49.082;9.102;2022-12-29T07:59:57;10.40;99.90
27890;DHT22;15238;49.082;9.102;2022-12-29T08:01:58;10.50;99.90
27890;DHT22;15238;49.082;9.102;2022-12-29T08:03:58;10.50;99.90
27890;DHT22;15238;49.082;9.102;2022-12-29T08:05:59;10.50;99.90
27890;DHT22;15238;49.082;9.102;2022-12-29T08:07:59;10.50;99.90
27890;DHT22;15238;49.082;9.102;2022-12-29T08:10:00;10.50;99.90
27890;DHT22;15238;49.082;9.102;2022-12-29T08:12:01;10.50;99.90
27890;DHT22;15238;49.082;9.102;2022-12-29T08:14:02;10.50;99.90
27890;DHT22;15238;49.082;9.102;2022-12-29T08:16:03;10.50;99.90
27890;DHT22;15238;49.082;9.102;2022-12-29T08:20:16;10.50;99.90
27890;DHT22;15238;49.082;9.102;2022-12-29T08:22:16;10.50;99.90
27890;DHT22;15238;49.082;9.102;2022-12-29T08:24:17;10.50;99.90
27890;DHT22;15238;49.082;9.102;2022-12-29T08:26:17;10.50;99.90
27890;DHT22;15238;49.082;9.102;2022-12-29T08:28:18;10.50;99.90
27890;DHT22;15238;49.082;9.102;2022-12-29T08:30:18;10.40;99.90
27890;DHT22;15238;49.082;9.102;2022-12-29T08:32:19;10.40;99.90
27890;DHT22;15238;49.082;9.102;2022-12-29T08:34:19;10.40;99.90
27890;DHT22;15238;49.082;9.102;2022-12-29T08:36:20;10.30;99.90
27890;DHT22;15238;49.082;9.102;2022-12-29T08:38:20;10.30;99.90
27890;DHT22;15238;49.082;9.102;2022-12-29T08:40:21;10.30;99.90
27890;DHT22;15238;49.082;9.102;2022-12-29T08:42:21;10.30;99.90
27890;DHT22;15238;49.082;9.102;2022-12-29T08:44:22;10.30;99.90
27890;DHT22;15238;49.082;9.102;2022-12-29T08:46:23;10.30;99.90
27890;DHT22;15238;49.082;9.102;2022-12-29T08:48:23;10.30;99.90
27890;DHT22;15238;49.082;9.102;2022-12-29T08:50:24;10.30;99.90
27890;DHT22;15238;49.082;9.102;2022-12-29T08:52:25;10.30;99.90
27890;DHT22;15238;49.082;9.102;2022-12-29T08:54:25;10.30;99.90
27890;DHT22;15238;49.082;9.102;2022-12-29T08:56:26;10.30;99.90
27890;DHT22;15238;49.082;9.102;2022-12-29T08:58:27;10.30;99.90
27890;DHT22;15238;49.082;9.102;2022-12-29T09:00:27;10.30;99.90
27890;DHT22;15238;49.082;9.102;2022-12-29T09:02:28;10.30;99.90
27890;DHT22;15238;49.082;9.102;2022-12-29T09:04:29;10.30;99.90
27890;DHT22;15238;49.082;9.102;2022-12-29T09:06:29;10.40;99.90
27890;DHT22;15238;49.082;9.102;2022-12-29T09:08:30;10.50;99.90
27890;DHT22;15238;49.082;9.102;2022-12-29T09:10:31;10.70;99.90
27890;DHT22;15238;49.082;9.102;2022-12-29T09:12:31;11.00;99.90
27890;DHT22;15238;49.082;9.102;2022-12-29T09:14:32;11.30;99.90
27890;DHT22;15238;49.082;9.102;2022-12-29T09:16:33;11.50;99.90
27890;DHT22;15238;49.082;9.102;2022-12-29T09:18:34;11.80;99.90
27890;DHT22;15238;49.082;9.102;2022-12-29T09:20:35;12.00;99.90
27890;DHT22;15238;49.082;9.102;2022-12-29T09:22:36;12.10;99.90
27890;DHT22;15238;49.082;9.102;2022-12-29T09:24:36;12.20;99.90
27890;DHT22;15238;49.082;9.102;2022-12-29T09:26:37;12.40;99.90
27890;DHT22;15238;49.082;9.102;2022-12-29T09:28:37;12.50;99.90
27890;DHT22;15238;49.082;9.102;2022-12-29T09:30:38;12.50;99.90
27890;DHT22;15238;49.082;9.102;2022-12-29T09:32:38;12.50;99.90
27890;DHT22;15238;49.082;9.102;2022-12-29T09:34:39;12.60;99.90
27890;DHT22;15238;49.082;9.102;2022-12-29T09:36:39;12.60;99.90
27890;DHT22;15238;49.082;9.102;2022-12-29T09:38:41;12.70;99.90
27890;DHT22;15238;49.082;9.102;2022-12-29T09:40:45;12.80;99.90
27890;DHT22;15238;49.082;9.102;2022-12-29T09:45:19;12.90;99.90
27890;DHT22;15238;49.082;9.102;2022-12-29T09:47:22;12.90;99.90
27890;DHT22;15238;49.082;9.102;2022-12-29T09:51:49;13.30;99.90
27890;DHT22;15238;49.082;9.102;2022-12-29T09:53:58;13.30;99.90
27890;DHT22;15238;49.082;9.102;2022-12-29T09:56:01;13.30;99.90
27890;DHT22;15238;49.082;9.102;2022-12-29T09:58:10;13.30;99.90
27890;DHT22;15238;49.082;9.102;2022-12-29T10:00:21;13.40;99.90
27890;DHT22;15238;49.082;9.102;2022-12-29T10:04:27;13.40;99.90
27890;DHT22;15238;49.082;9.102;2022-12-29T10:08:47;13.40;99.90
27890;DHT22;15238;49.082;9.102;2022-12-29T10:10:54;13.40;99.90
27890;DHT22;15238;49.082;9.102;2022-12-29T10:13:13;13.50;99.90
27890;DHT22;15238;49.082;9.102;2022-12-29T10:15:55;13.50;99.90
27890;DHT22;15238;49.082;9.102;2022-12-29T10:24:53;13.90;99.90
27890;DHT22;15238;49.082;9.102;2022-12-29T10:26:56;13.90;99.90
27890;DHT22;15238;49.082;9.102;2022-12-29T10:29:03;14.00;99.90
27890;DHT22;15238;49.082;9.102;2022-12-29T10:31:25;14.00;99.90
27890;DHT22;15238;49.082;9.102;2022-12-29T10:33:32;14.10;99.90
27890;DHT22;15238;49.082;9.102;2022-12-29T10:35:36;14.00;99.90
27890;DHT22;15238;49.082;9.102;2022-12-29T10:40:32;14.00;99.90
27890;DHT22;15238;49.082;9.102;2022-12-29T10:42:36;14.00;99.90
27890;DHT22;15238;49.082;9.102;2022-12-29T10:44:41;14.00;99.90
27890;DHT22;15238;49.082;9.102;2022-12-29T10:46:42;14.10;99.90
27890;DHT22;15238;49.082;9.102;2022-12-29T10:48:43;14.20;99.90
27890;DHT22;15238;49.082;9.102;2022-12-29T10:50:45;14.30;99.90
27890;DHT22;15238;49.082;9.102;2022-12-29T10:52:48;14.40;99.90
27890;DHT22;15238;49.082;9.102;2022-12-29T10:55:11;14.50;99.90
27890;DHT22;15238;49.082;9.102;2022-12-29T10:57:28;14.40;99.90
27890;DHT22;15238;49.082;9.102;2022-12-29T10:59:34;14.30;99.90
27890;DHT22;15238;49.082;9.102;2022-12-29T11:01:41;14.20;99.90
27890;DHT22;15238;49.082;9.102;2022-12-29T11:04:21;14.10;99.90
27890;DHT22;15238;49.082;9.102;2022-12-29T11:06:25;14.10;99.90
27890;DHT22;15238;49.082;9.102;2022-12-29T11:08:30;14.30;99.90
27890;DHT22;15238;49.082;9.102;2022-12-29T11:10:37;14.30;99.90
27890;DHT22;15238;49.082;9.102;2022-12-29T11:12:40;14.30;99.90
27890;DHT22;15238;49.082;9.102;2022-12-29T11:14:41;14.30;99.90
27890;DHT22;15238;49.082;9.102;2022-12-29T11:16:42;14.40;99.90
27890;DHT22;15238;49.082;9.102;2022-12-29T11:18:47;14.40;99.90
27890;DHT22;15238;49.082;9.102;2022-12-29T11:20:50;14.40;99.90
27890;DHT22;15238;49.082;9.102;2022-12-29T11:22:52;14.30;99.90
27890;DHT22;15238;49.082;9.102;2022-12-29T11:24:54;14.20;99.90
27890;DHT22;15238;49.082;9.102;2022-12-29T11:27:19;14.20;99.90
27890;DHT22;15238;49.082;9.102;2022-12-29T11:29:27;14.20;99.90
27890;DHT22;15238;49.082;9.102;2022-12-29T11:31:28;14.10;99.90
27890;DHT22;15238;49.082;9.102;2022-12-29T11:33:30;14.00;99.90
27890;DHT22;15238;49.082;9.102;2022-12-29T11:35:41;14.00;99.90
27890;DHT22;15238;49.082;9.102;2022-12-29T11:37:42;13.90;99.90
27890;DHT22;15238;49.082;9.102;2022-12-29T11:39:55;13.90;99.90
27890;DHT22;15238;49.082;9.102;2022-12-29T11:41:57;14.00;99.90
27890;DHT22;15238;49.082;9.102;2022-12-29T11:44:00;14.00;99.90
27890;DHT22;15238;49.082;9.102;2022-12-29T11:46:03;14.00;99.90
27890;DHT22;15238;49.082;9.102;2022-12-29T11:48:12;14.00;99.90
27890;DHT22;15238;49.082;9.102;2022-12-29T11:50:28;14.00;99.90
27890;DHT22;15238;49.082;9.102;2022-12-29T11:52:32;14.00;99.90
27890;DHT22;15238;49.082;9.102;2022-12-29T11:54:36;13.90;99.90
27890;DHT22;15238;49.082;9.102;2022-12-29T11:56:40;13.90;99.90
27890;DHT22;15238;49.082;9.102;2022-12-29T11:58:41;13.90;99.90
27890;DHT22;15238;49.082;9.102;2022-12-29T12:00:43;13.90;99.90
27890;DHT22;15238;49.082;9.102;2022-12-29T12:04:58;13.90;99.90
27890;DHT22;15238;49.082;9.102;2022-12-29T12:07:11;13.90;99.90
27890;DHT22;15238;49.082;9.102;2022-12-29T12:09:19;14.00;99.90
27890;DHT22;15238;49.082;9.102;2022-12-29T12:11:40;14.10;99.90
27890;DHT22;15238;49.082;9.102;2022-12-29T12:13:50;14.20;99.90
27890;DHT22;15238;49.082;9.102;2022-12-29T12:15:59;14.30;99.90
27890;DHT22;15238;49.082;9.102;2022-12-29T12:18:08;14.30;99.90
27890;DHT22;15238;49.082;9.102;2022-12-29T12:22:35;14.20;99.90
27890;DHT22;15238;49.082;9.102;2022-12-29T12:24:49;14.20;99.90
27890;DHT22;15238;49.082;9.102;2022-12-29T12:26:58;14.20;99.90
27890;DHT22;15238;49.082;9.102;2022-12-29T12:29:17;14.20;99.90
27890;DHT22;15238;49.082;9.102;2022-12-29T12:31:59;14.20;99.90
27890;DHT22;15238;49.082;9.102;2022-12-29T12:34:06;14.20;99.90
27890;DHT22;15238;49.082;9.102;2022-12-29T12:36:39;14.10;99.90
27890;DHT22;15238;49.082;9.102;2022-12-29T12:40:02;14.00;99.90
27890;DHT22;15238;49.082;9.102;2022-12-29T12:48:26;13.70;99.90
27890;DHT22;15238;49.082;9.102;2022-12-29T12:50:32;13.70;99.90
27890;DHT22;15238;49.082;9.102;2022-12-29T12:52:45;13.70;99.90
27890;DHT22;15238;49.082;9.102;2022-12-29T12:59:41;13.70;99.90
27890;DHT22;15238;49.082;9.102;2022-12-29T13:06:40;13.60;99.90
27890;DHT22;15238;49.082;9.102;2022-12-29T13:10:53;13.40;99.90
27890;DHT22;15238;49.082;9.102;2022-12-29T13:17:39;13.00;99.90
27890;DHT22;15238;49.082;9.102;2022-12-29T13:20:10;12.80;99.90
27890;DHT22;15238;49.082;9.102;2022-12-29T13:22:50;12.70;99.90
27890;DHT22;15238;49.082;9.102;2022-12-29T13:25:20;12.70;99.90
27890;DHT22;15238;49.082;9.102;2022-12-29T13:27:32;12.80;99.90
27890;DHT22;15238;49.082;9.102;2022-12-29T13:29:46;12.80;99.90
27890;DHT22;15238;49.082;9.102;2022-12-29T13:36:35;12.80;99.90
27890;DHT22;15238;49.082;9.102;2022-12-29T13:38:44;12.70;99.90
27890;DHT22;15238;49.082;9.102;2022-12-29T13:40:49;12.70;99.90
27890;DHT22;15238;49.082;9.102;2022-12-29T13:42:52;12.70;99.90
27890;DHT22;15238;49.082;9.102;2022-12-29T13:44:54;12.70;99.90
27890;DHT22;15238;49.082;9.102;2022-12-29T13:47:01;12.70;99.90
27890;DHT22;15238;49.082;9.102;2022-12-29T13:49:08;12.70;99.90
27890;DHT22;15238;49.082;9.102;2022-12-29T13:51:12;12.70;99.90
27890;DHT22;15238;49.082;9.102;2022-12-29T13:57:49;12.70;99.90
27890;DHT22;15238;49.082;9.102;2022-12-29T13:59:57;12.70;99.90
27890;DHT22;15238;49.082;9.102;2022-12-29T14:04:27;12.60;99.90
27890;DHT22;15238;49.082;9.102;2022-12-29T14:06:33;12.50;99.90
27890;DHT22;15238;49.082;9.102;2022-12-29T14:08:36;12.50;99.90
27890;DHT22;15238;49.082;9.102;2022-12-29T14:10:49;12.30;99.90
27890;DHT22;15238;49.082;9.102;2022-12-29T14:12:50;12.20;99.90
27890;DHT22;15238;49.082;9.102;2022-12-29T14:14:51;12.00;99.90
27890;DHT22;15238;49.082;9.102;2022-12-29T14:16:52;11.90;99.90
27890;DHT22;15238;49.082;9.102;2022-12-29T14:18:54;11.80;99.90
27890;DHT22;15238;49.082;9.102;2022-12-29T14:21:19;11.70;99.90
27890;DHT22;15238;49.082;9.102;2022-12-29T14:23:40;11.60;99.90
27890;DHT22;15238;49.082;9.102;2022-12-29T14:26:00;11.30;99.90
27890;DHT22;15238;49.082;9.102;2022-12-29T14:28:19;11.10;99.90
27890;DHT22;15238;49.082;9.102;2022-12-29T14:30:51;11.00;99.90
27890;DHT22;15238;49.082;9.102;2022-12-29T14:33:03;10.80;99.90
27890;DHT22;15238;49.082;9.102;2022-12-29T14:35:42;10.70;99.90
27890;DHT22;15238;49.082;9.102;2022-12-29T14:37:44;10.60;99.90
27890;DHT22;15238;49.082;9.102;2022-12-29T14:39:45;10.60;99.90
27890;DHT22;15238;49.082;9.102;2022-12-29T14:41:46;10.50;99.90
27890;DHT22;15238;49.082;9.102;2022-12-29T14:43:59;10.50;99.90